Warning: Javascript must be enabled to use all the features on this page!


Page Loading - Please Wait...

* We've detected you're using a mobile device. Find our Next Generation Station Page here.
Click to hideNews Bulletins

Peak Streamflow for the Nation

USGS 03501000 CULLASAJA RIVER AT CULLASAJA, NC

Macon County, North Carolina
Hydrologic Unit Code 06010202
Latitude  35°09'59", Longitude  83°19'25" NAD27
Drainage area 86.50  square miles
Gage datum 2,023.37 feet above NGVD29
Output formats
Table
Graph
Tab-separated file
peakfq (watstore) format
Reselect output format
Water
Year
Date Gage
Height
(feet)
Stream-
flow
(cfs)
1908 1908-02-15 6.00 1,450
1909 1909-05-20 8.20 2,220
1922 1922-01-21 8.00 2,150
1923 1923-05-23 10.10 2,940
1924 1924-01-11 8.60 2,360
1925 1924-12-08 7.60 2,010
1926 1926-01-18 8.20 2,220
1927 1926-12-25 6.00 1,450
1928 1928-08-15 17.04 7,770
1929 1929-03-14 12.75 4,180
1930 1929-11-03 7.30 1,900
1931 1931-04-22 7.40 1,940
1932 1932-04-30 8.80 2,430
1933 1933-05-05 9.20 2,580
1934 1934-03-03 8.50 2,320
1935 1935-01-09 10.25 3,000
1936 1936-09-30 13.40 4,520
1937 1936-12-31 7.78 2,070
1938 1937-10-19 10.47 3,090
1939 1939-01-30 8.50 2,320
1940 1940-08-30 20.83 16,500
1941 1941-07-07 8.78 2,420
1942 1942-03-08 7.86 2,100
1943 1942-12-29 12.10 3,850
1944 1944-03-29 6.55 1,630
1945 1945-09-14 6.69 1,720
1946 1946-02-10 10.00 2,900
1947 1947-01-20 10.35 2,990
1948 1948-09-06 8.58 2,350
1949 1949-06-16 17.60 8,620
1950 1950-03-13 8.57 2,330
1951 1950-12-07 9.35 2,640
1952 1952-03-11 13.88 4,810
1953 1953-02-21 12.40 4,000
1954 1954-01-22 9.78 2,810
1955 1955-05-22 11.33 3,460
1956 1956-04-15 10.80 3,220
1957 1957-04-04 11.30 3,450
1958 1957-11-19 9.01 2,500
1959 1959-01-21 11.66 3,630
1960 1959-10-09 9.40 2,660
1961 1961-02-25 10.61 3,140
1962 1961-12-12 10.67 3,170
1963 1963-03-12 8.82 2,540
1964 1964-09-29 13.48 4,700
1965 1964-10-04 21.45 16,900
1966 1966-02-13 18.15 9,560
1967 1967-06-04 15.63 6,140
1968 1968-03-12 12.83 4,260
1969 1969-02-02 7.95 1,710
1970 1969-12-31 8.66 2,030
1971 1971-02-22 7.16 1,360
1973 1973-05-28 14.08 5,0107
1976 1976-05-15 19.02 11,3007
?
  Peak Streamflow Qualification Codes.